This is the latest recevied weather packets stored in our database for station/object OK4PZ-5. If no packets are shown the sender has not sent any weather packets the latest 10 day(s).
| Time | Temp. | Humidity | Pressure | Rain* | Wind** | Luminosity | Snow |
|---|---|---|---|---|---|---|---|
| 1777169703 | 3.89° C | 74% | 1018 hPa | 0 mm | - | - | - |
| 1777168802 | 3.89° C | 72% | 1018 hPa | 0 mm | - | - | - |
| 1777167902 | 5° C | 68% | 1018 hPa | 0 mm | - | - | - |
| 1777167003 | 5° C | 69% | 1018 hPa | 0 mm | - | - | - |
| 1777166103 | 6.11° C | 62% | 1018 hPa | 0 mm | - | - | - |
| 1777165202 | 6.67° C | 57% | 1017 hPa | 0 mm | - | - | - |
| 1777164302 | 5.56° C | 64% | 1017 hPa | 0 mm | - | - | - |
| 1777163403 | 6.11° C | 63% | 1017 hPa | 0 mm | - | - | - |
| 1777162503 | 7.78° C | 54% | 1017 hPa | 0 mm | - | - | - |
| 1777161602 | 6.11° C | 64% | 1017 hPa | 0 mm | - | - | - |
| 1777160702 | 5.56° C | 67% | 1017 hPa | 0 mm | - | - | - |
| 1777159802 | 5.56° C | 67% | 1017 hPa | 0 mm | - | - | - |
| 1777158902 | 6.11° C | 67% | 1017 hPa | 0 mm | - | - | - |
| 1777158002 | 5.56° C | 65% | 1017 hPa | 0 mm | - | - | - |
| 1777157102 | 6.67° C | 61% | 1017 hPa | 0 mm | - | - | - |
| 1777156202 | 6.67° C | 61% | 1017 hPa | 0 mm | - | - | - |
| 1777155302 | 7.78° C | 54% | 1017 hPa | 0 mm | - | - | - |
| 1777154402 | 10.56° C | 40% | 1016 hPa | 0 mm | - | - | - |
| 1777153502 | 10.56° C | 41% | 1017 hPa | 0 mm | - | - | - |
| 1777152603 | 8.33° C | 55% | 1016 hPa | 0 mm | - | - | - |
| 1777151702 | 8.89° C | 52% | 1016 hPa | 0 mm | - | - | - |
| 1777150803 | 9.44° C | 52% | 1016 hPa | 0 mm | - | - | - |
| 1777149902 | 10° C | 49% | 1016 hPa | 0 mm | - | - | - |
| 1777149002 | 11.67° C | 43% | 1016 hPa | 0 mm | - | - | - |
| 1777148102 | 11.67° C | 39% | 1016 hPa | 0 mm | - | - | - |
* Rain latest hour (hover to see other rain measurements)
** Current wind speed in m/s (hover to see current wind gust speed)